<?xml version="1.0" encoding="UTF-8" standalone="no" ?>
<gpx xmlns="http://www.topografix.com/GPX/1/1" xmlns:xsi="http://www.w3.org/2001/XMLSchema-instance" xsi:schemaLocation="http://www.topografix.com/GPX/1/1 http://www.topografix.com/GPX/1/1/gpx.xsd" version="1.1" creator="VisuGPX - https://www.visugpx.com">
  <metadata>
    <name>Le Camin'adour (1)</name>
    <desc><![CDATA[Jonction entre mon domicile et le début de la première étape du "Sentier d'Adour".

]]></desc>
  </metadata>
  <trk>
    <name><![CDATA[13 déc. 2020 à 08:40:06]]></name>
    <cmt><![CDATA[13 déc. 2020 à 08:40:06]]></cmt>
    <trkseg>
      <trkpt lat="43.2338" lon="0.08124">
        <ele>311</ele>
        <time>2020-12-13T07:40:06Z</time>
      </trkpt>
      <trkpt lat="43.23378" lon="0.08132">
        <ele>312</ele>
        <time>2020-12-13T07:41:47Z</time>
      </trkpt>
      <trkpt lat="43.23364" lon="0.08129">
        <ele>312</ele>
        <time>2020-12-13T07:45:25Z</time>
      </trkpt>
      <trkpt lat="43.23402" lon="0.08151">
        <ele>303</ele>
        <time>2020-12-13T07:47:34Z</time>
      </trkpt>
      <trkpt lat="43.23399" lon="0.08175">
        <ele>303</ele>
        <time>2020-12-13T07:47:56Z</time>
      </trkpt>
      <trkpt lat="43.23395" lon="0.08187">
        <ele>303</ele>
        <time>2020-12-13T07:48:06Z</time>
      </trkpt>
      <trkpt lat="43.23391" lon="0.08197">
        <ele>303</ele>
        <time>2020-12-13T07:48:16Z</time>
      </trkpt>
      <trkpt lat="43.23394" lon="0.08206">
        <ele>302</ele>
        <time>2020-12-13T07:48:23Z</time>
      </trkpt>
      <trkpt lat="43.23395" lon="0.08217">
        <ele>302</ele>
        <time>2020-12-13T07:48:30Z</time>
      </trkpt>
      <trkpt lat="43.23402" lon="0.08226">
        <ele>302</ele>
        <time>2020-12-13T07:48:38Z</time>
      </trkpt>
      <trkpt lat="43.23415" lon="0.08258">
        <ele>303</ele>
        <time>2020-12-13T07:49:17Z</time>
      </trkpt>
      <trkpt lat="43.23426" lon="0.08267">
        <ele>303</ele>
        <time>2020-12-13T07:49:29Z</time>
      </trkpt>
      <trkpt lat="43.2343" lon="0.08289">
        <ele>303</ele>
        <time>2020-12-13T07:49:41Z</time>
      </trkpt>
      <trkpt lat="43.23429" lon="0.08298">
        <ele>303</ele>
        <time>2020-12-13T07:49:46Z</time>
      </trkpt>
      <trkpt lat="43.23435" lon="0.08322">
        <ele>303</ele>
        <time>2020-12-13T07:49:55Z</time>
      </trkpt>
      <trkpt lat="43.23434" lon="0.08343">
        <ele>304</ele>
        <time>2020-12-13T07:50:00Z</time>
      </trkpt>
      <trkpt lat="43.23428" lon="0.08382">
        <ele>303</ele>
        <time>2020-12-13T07:50:19Z</time>
      </trkpt>
      <trkpt lat="43.23433" lon="0.08398">
        <ele>304</ele>
        <time>2020-12-13T07:50:29Z</time>
      </trkpt>
      <trkpt lat="43.23441" lon="0.08408">
        <ele>304</ele>
        <time>2020-12-13T07:50:37Z</time>
      </trkpt>
      <trkpt lat="43.23449" lon="0.0842">
        <ele>304</ele>
        <time>2020-12-13T07:50:47Z</time>
      </trkpt>
      <trkpt lat="43.23456" lon="0.08437">
        <ele>304</ele>
        <time>2020-12-13T07:50:59Z</time>
      </trkpt>
      <trkpt lat="43.23468" lon="0.08449">
        <ele>304</ele>
        <time>2020-12-13T07:51:11Z</time>
      </trkpt>
      <trkpt lat="43.23486" lon="0.08464">
        <ele>304</ele>
        <time>2020-12-13T07:51:26Z</time>
      </trkpt>
      <trkpt lat="43.23519" lon="0.08507">
        <ele>303</ele>
        <time>2020-12-13T07:51:59Z</time>
      </trkpt>
      <trkpt lat="43.23545" lon="0.08533">
        <ele>303</ele>
        <time>2020-12-13T07:52:26Z</time>
      </trkpt>
      <trkpt lat="43.23562" lon="0.08567">
        <ele>303</ele>
        <time>2020-12-13T07:52:50Z</time>
      </trkpt>
      <trkpt lat="43.2357" lon="0.08566">
        <ele>303</ele>
        <time>2020-12-13T07:53:05Z</time>
      </trkpt>
      <trkpt lat="43.23585" lon="0.0854">
        <ele>303</ele>
        <time>2020-12-13T07:53:32Z</time>
      </trkpt>
      <trkpt lat="43.23588" lon="0.08528">
        <ele>303</ele>
        <time>2020-12-13T07:53:38Z</time>
      </trkpt>
      <trkpt lat="43.23597" lon="0.08513">
        <ele>303</ele>
        <time>2020-12-13T07:53:53Z</time>
      </trkpt>
      <trkpt lat="43.23609" lon="0.08489">
        <ele>303</ele>
        <time>2020-12-13T07:54:11Z</time>
      </trkpt>
      <trkpt lat="43.23625" lon="0.08471">
        <ele>304</ele>
        <time>2020-12-13T07:54:26Z</time>
      </trkpt>
      <trkpt lat="43.23633" lon="0.08455">
        <ele>304</ele>
        <time>2020-12-13T07:54:35Z</time>
      </trkpt>
      <trkpt lat="43.23647" lon="0.08444">
        <ele>304</ele>
        <time>2020-12-13T07:54:49Z</time>
      </trkpt>
      <trkpt lat="43.23692" lon="0.08434">
        <ele>304</ele>
        <time>2020-12-13T07:55:09Z</time>
      </trkpt>
      <trkpt lat="43.23707" lon="0.08429">
        <ele>304</ele>
        <time>2020-12-13T07:55:18Z</time>
      </trkpt>
      <trkpt lat="43.23726" lon="0.08416">
        <ele>303</ele>
        <time>2020-12-13T07:55:38Z</time>
      </trkpt>
      <trkpt lat="43.23734" lon="0.08414">
        <ele>303</ele>
        <time>2020-12-13T07:55:43Z</time>
      </trkpt>
      <trkpt lat="43.23742" lon="0.08407">
        <ele>303</ele>
        <time>2020-12-13T07:55:48Z</time>
      </trkpt>
      <trkpt lat="43.23758" lon="0.0839">
        <ele>303</ele>
        <time>2020-12-13T07:56:06Z</time>
      </trkpt>
      <trkpt lat="43.23772" lon="0.08382">
        <ele>303</ele>
        <time>2020-12-13T07:56:19Z</time>
      </trkpt>
      <trkpt lat="43.23784" lon="0.08367">
        <ele>303</ele>
        <time>2020-12-13T07:56:29Z</time>
      </trkpt>
      <trkpt lat="43.23813" lon="0.08337">
        <ele>303</ele>
        <time>2020-12-13T07:57:01Z</time>
      </trkpt>
      <trkpt lat="43.2382" lon="0.0834">
        <ele>303</ele>
        <time>2020-12-13T07:57:13Z</time>
      </trkpt>
      <trkpt lat="43.23836" lon="0.08328">
        <ele>304</ele>
        <time>2020-12-13T07:57:45Z</time>
      </trkpt>
      <trkpt lat="43.23873" lon="0.08307">
        <ele>304</ele>
        <time>2020-12-13T07:58:17Z</time>
      </trkpt>
      <trkpt lat="43.23906" lon="0.08289">
        <ele>304</ele>
        <time>2020-12-13T07:58:40Z</time>
      </trkpt>
      <trkpt lat="43.2392" lon="0.08285">
        <ele>304</ele>
        <time>2020-12-13T07:58:52Z</time>
      </trkpt>
      <trkpt lat="43.23928" lon="0.08284">
        <ele>303</ele>
        <time>2020-12-13T07:58:58Z</time>
      </trkpt>
      <trkpt lat="43.23939" lon="0.08276">
        <ele>303</ele>
        <time>2020-12-13T07:59:08Z</time>
      </trkpt>
      <trkpt lat="43.23954" lon="0.08266">
        <ele>305</ele>
        <time>2020-12-13T07:59:17Z</time>
      </trkpt>
      <trkpt lat="43.2396" lon="0.08274">
        <ele>306</ele>
        <time>2020-12-13T07:59:28Z</time>
      </trkpt>
      <trkpt lat="43.23961" lon="0.08285">
        <ele>306</ele>
        <time>2020-12-13T07:59:33Z</time>
      </trkpt>
      <trkpt lat="43.23965" lon="0.08293">
        <ele>307</ele>
        <time>2020-12-13T07:59:37Z</time>
      </trkpt>
      <trkpt lat="43.23965" lon="0.08302">
        <ele>307</ele>
        <time>2020-12-13T07:59:41Z</time>
      </trkpt>
      <trkpt lat="43.23965" lon="0.0831">
        <ele>306</ele>
        <time>2020-12-13T07:59:45Z</time>
      </trkpt>
      <trkpt lat="43.23958" lon="0.08352">
        <ele>306</ele>
        <time>2020-12-13T08:00:07Z</time>
      </trkpt>
      <trkpt lat="43.23958" lon="0.08361">
        <ele>305</ele>
        <time>2020-12-13T08:00:12Z</time>
      </trkpt>
      <trkpt lat="43.23961" lon="0.08368">
        <ele>305</ele>
        <time>2020-12-13T08:00:18Z</time>
      </trkpt>
      <trkpt lat="43.23972" lon="0.08355">
        <ele>304</ele>
        <time>2020-12-13T08:00:34Z</time>
      </trkpt>
      <trkpt lat="43.23976" lon="0.08349">
        <ele>304</ele>
        <time>2020-12-13T08:00:38Z</time>
      </trkpt>
      <trkpt lat="43.23982" lon="0.08341">
        <ele>303</ele>
        <time>2020-12-13T08:00:52Z</time>
      </trkpt>
      <trkpt lat="43.23988" lon="0.08339">
        <ele>303</ele>
        <time>2020-12-13T08:00:57Z</time>
      </trkpt>
      <trkpt lat="43.24009" lon="0.08335">
        <ele>304</ele>
        <time>2020-12-13T08:01:13Z</time>
      </trkpt>
      <trkpt lat="43.24034" lon="0.08316">
        <ele>303</ele>
        <time>2020-12-13T08:01:33Z</time>
      </trkpt>
      <trkpt lat="43.24037" lon="0.08311">
        <ele>303</ele>
        <time>2020-12-13T08:01:37Z</time>
      </trkpt>
      <trkpt lat="43.24067" lon="0.08295">
        <ele>303</ele>
        <time>2020-12-13T08:02:04Z</time>
      </trkpt>
      <trkpt lat="43.24087" lon="0.08276">
        <ele>303</ele>
        <time>2020-12-13T08:02:21Z</time>
      </trkpt>
      <trkpt lat="43.24105" lon="0.08268">
        <ele>303</ele>
        <time>2020-12-13T08:02:49Z</time>
      </trkpt>
      <trkpt lat="43.24113" lon="0.08269">
        <ele>303</ele>
        <time>2020-12-13T08:02:55Z</time>
      </trkpt>
      <trkpt lat="43.24147" lon="0.08255">
        <ele>302</ele>
        <time>2020-12-13T08:03:23Z</time>
      </trkpt>
      <trkpt lat="43.24155" lon="0.08257">
        <ele>302</ele>
        <time>2020-12-13T08:03:30Z</time>
      </trkpt>
      <trkpt lat="43.2421" lon="0.08252">
        <ele>302</ele>
        <time>2020-12-13T08:04:04Z</time>
      </trkpt>
      <trkpt lat="43.24217" lon="0.08252">
        <ele>303</ele>
        <time>2020-12-13T08:04:11Z</time>
      </trkpt>
      <trkpt lat="43.24225" lon="0.0825">
        <ele>303</ele>
        <time>2020-12-13T08:04:18Z</time>
      </trkpt>
      <trkpt lat="43.24235" lon="0.08247">
        <ele>302</ele>
        <time>2020-12-13T08:04:31Z</time>
      </trkpt>
      <trkpt lat="43.24242" lon="0.08247">
        <ele>302</ele>
        <time>2020-12-13T08:04:38Z</time>
      </trkpt>
      <trkpt lat="43.24258" lon="0.08249">
        <ele>302</ele>
        <time>2020-12-13T08:04:50Z</time>
      </trkpt>
      <trkpt lat="43.24296" lon="0.08265">
        <ele>301</ele>
        <time>2020-12-13T08:05:34Z</time>
      </trkpt>
      <trkpt lat="43.24311" lon="0.08272">
        <ele>301</ele>
        <time>2020-12-13T08:05:43Z</time>
      </trkpt>
      <trkpt lat="43.24372" lon="0.08274">
        <ele>301</ele>
        <time>2020-12-13T08:06:16Z</time>
      </trkpt>
      <trkpt lat="43.24388" lon="0.08273">
        <ele>301</ele>
        <time>2020-12-13T08:06:23Z</time>
      </trkpt>
      <trkpt lat="43.24448" lon="0.0826">
        <ele>301</ele>
        <time>2020-12-13T08:06:55Z</time>
      </trkpt>
      <trkpt lat="43.24494" lon="0.0826">
        <ele>300</ele>
        <time>2020-12-13T08:07:30Z</time>
      </trkpt>
      <trkpt lat="43.24514" lon="0.08267">
        <ele>300</ele>
        <time>2020-12-13T08:07:44Z</time>
      </trkpt>
      <trkpt lat="43.24522" lon="0.08269">
        <ele>300</ele>
        <time>2020-12-13T08:07:51Z</time>
      </trkpt>
      <trkpt lat="43.2453" lon="0.08275">
        <ele>300</ele>
        <time>2020-12-13T08:07:57Z</time>
      </trkpt>
      <trkpt lat="43.24543" lon="0.0829">
        <ele>300</ele>
        <time>2020-12-13T08:08:08Z</time>
      </trkpt>
      <trkpt lat="43.24552" lon="0.08296">
        <ele>299</ele>
        <time>2020-12-13T08:08:16Z</time>
      </trkpt>
      <trkpt lat="43.24556" lon="0.08304">
        <ele>299</ele>
        <time>2020-12-13T08:08:21Z</time>
      </trkpt>
      <trkpt lat="43.24586" lon="0.08322">
        <ele>299</ele>
        <time>2020-12-13T08:08:49Z</time>
      </trkpt>
      <trkpt lat="43.24624" lon="0.08333">
        <ele>300</ele>
        <time>2020-12-13T08:09:21Z</time>
      </trkpt>
      <trkpt lat="43.2464" lon="0.08334">
        <ele>299</ele>
        <time>2020-12-13T08:09:33Z</time>
      </trkpt>
      <trkpt lat="43.24653" lon="0.08337">
        <ele>299</ele>
        <time>2020-12-13T08:09:45Z</time>
      </trkpt>
      <trkpt lat="43.24677" lon="0.0834">
        <ele>300</ele>
        <time>2020-12-13T08:10:06Z</time>
      </trkpt>
      <trkpt lat="43.24681" lon="0.08347">
        <ele>300</ele>
        <time>2020-12-13T08:10:17Z</time>
      </trkpt>
      <trkpt lat="43.24698" lon="0.08348">
        <ele>300</ele>
        <time>2020-12-13T08:10:49Z</time>
      </trkpt>
      <trkpt lat="43.24719" lon="0.08348">
        <ele>299</ele>
        <time>2020-12-13T08:11:11Z</time>
      </trkpt>
      <trkpt lat="43.24726" lon="0.08346">
        <ele>299</ele>
        <time>2020-12-13T08:11:17Z</time>
      </trkpt>
      <trkpt lat="43.24734" lon="0.08346">
        <ele>299</ele>
        <time>2020-12-13T08:11:22Z</time>
      </trkpt>
      <trkpt lat="43.24742" lon="0.08343">
        <ele>299</ele>
        <time>2020-12-13T08:11:30Z</time>
      </trkpt>
      <trkpt lat="43.24784" lon="0.0834">
        <ele>299</ele>
        <time>2020-12-13T08:12:00Z</time>
      </trkpt>
      <trkpt lat="43.24837" lon="0.08327">
        <ele>298</ele>
        <time>2020-12-13T08:12:30Z</time>
      </trkpt>
      <trkpt lat="43.24844" lon="0.08325">
        <ele>299</ele>
        <time>2020-12-13T08:12:36Z</time>
      </trkpt>
      <trkpt lat="43.24862" lon="0.08327">
        <ele>298</ele>
        <time>2020-12-13T08:12:47Z</time>
      </trkpt>
      <trkpt lat="43.24897" lon="0.08325">
        <ele>299</ele>
        <time>2020-12-13T08:13:10Z</time>
      </trkpt>
      <trkpt lat="43.24911" lon="0.08326">
        <ele>299</ele>
        <time>2020-12-13T08:13:20Z</time>
      </trkpt>
      <trkpt lat="43.24923" lon="0.08325">
        <ele>299</ele>
        <time>2020-12-13T08:13:29Z</time>
      </trkpt>
      <trkpt lat="43.24947" lon="0.08316">
        <ele>298</ele>
        <time>2020-12-13T08:13:57Z</time>
      </trkpt>
      <trkpt lat="43.24963" lon="0.08316">
        <ele>298</ele>
        <time>2020-12-13T08:14:10Z</time>
      </trkpt>
      <trkpt lat="43.25003" lon="0.08324">
        <ele>298</ele>
        <time>2020-12-13T08:14:35Z</time>
      </trkpt>
      <trkpt lat="43.25028" lon="0.08325">
        <ele>298</ele>
        <time>2020-12-13T08:14:53Z</time>
      </trkpt>
      <trkpt lat="43.25076" lon="0.08335">
        <ele>298</ele>
        <time>2020-12-13T08:15:23Z</time>
      </trkpt>
      <trkpt lat="43.25087" lon="0.08343">
        <ele>298</ele>
        <time>2020-12-13T08:15:31Z</time>
      </trkpt>
      <trkpt lat="43.25117" lon="0.08345">
        <ele>298</ele>
        <time>2020-12-13T08:15:51Z</time>
      </trkpt>
      <trkpt lat="43.25138" lon="0.08342">
        <ele>298</ele>
        <time>2020-12-13T08:16:07Z</time>
      </trkpt>
      <trkpt lat="43.25153" lon="0.08343">
        <ele>298</ele>
        <time>2020-12-13T08:16:18Z</time>
      </trkpt>
      <trkpt lat="43.2516" lon="0.08346">
        <ele>298</ele>
        <time>2020-12-13T08:16:24Z</time>
      </trkpt>
      <trkpt lat="43.2517" lon="0.08358">
        <ele>297</ele>
        <time>2020-12-13T08:16:32Z</time>
      </trkpt>
      <trkpt lat="43.25192" lon="0.08369">
        <ele>297</ele>
        <time>2020-12-13T08:16:50Z</time>
      </trkpt>
      <trkpt lat="43.2523" lon="0.08375">
        <ele>296</ele>
        <time>2020-12-13T08:17:17Z</time>
      </trkpt>
      <trkpt lat="43.25236" lon="0.0838">
        <ele>296</ele>
        <time>2020-12-13T08:17:22Z</time>
      </trkpt>
      <trkpt lat="43.25246" lon="0.08399">
        <ele>296</ele>
        <time>2020-12-13T08:17:34Z</time>
      </trkpt>
      <trkpt lat="43.25248" lon="0.08407">
        <ele>296</ele>
        <time>2020-12-13T08:17:38Z</time>
      </trkpt>
      <trkpt lat="43.25251" lon="0.08414">
        <ele>295</ele>
        <time>2020-12-13T08:17:43Z</time>
      </trkpt>
      <trkpt lat="43.25262" lon="0.08425">
        <ele>295</ele>
        <time>2020-12-13T08:17:53Z</time>
      </trkpt>
      <trkpt lat="43.25274" lon="0.08423">
        <ele>295</ele>
        <time>2020-12-13T08:18:05Z</time>
      </trkpt>
      <trkpt lat="43.25278" lon="0.08416">
        <ele>295</ele>
        <time>2020-12-13T08:18:11Z</time>
      </trkpt>
      <trkpt lat="43.25292" lon="0.08406">
        <ele>295</ele>
        <time>2020-12-13T08:18:23Z</time>
      </trkpt>
      <trkpt lat="43.25321" lon="0.08406">
        <ele>296</ele>
        <time>2020-12-13T08:18:50Z</time>
      </trkpt>
      <trkpt lat="43.25328" lon="0.08409">
        <ele>296</ele>
        <time>2020-12-13T08:18:57Z</time>
      </trkpt>
      <trkpt lat="43.25345" lon="0.08413">
        <ele>295</ele>
        <time>2020-12-13T08:19:20Z</time>
      </trkpt>
      <trkpt lat="43.25358" lon="0.08408">
        <ele>294</ele>
        <time>2020-12-13T08:19:34Z</time>
      </trkpt>
      <trkpt lat="43.2542" lon="0.08418">
        <ele>294</ele>
        <time>2020-12-13T08:20:04Z</time>
      </trkpt>
      <trkpt lat="43.25431" lon="0.0842">
        <ele>294</ele>
        <time>2020-12-13T08:20:12Z</time>
      </trkpt>
      <trkpt lat="43.25478" lon="0.08401">
        <ele>293</ele>
        <time>2020-12-13T08:20:48Z</time>
      </trkpt>
      <trkpt lat="43.25494" lon="0.08399">
        <ele>293</ele>
        <time>2020-12-13T08:20:58Z</time>
      </trkpt>
      <trkpt lat="43.25516" lon="0.0839">
        <ele>293</ele>
        <time>2020-12-13T08:21:11Z</time>
      </trkpt>
      <trkpt lat="43.25532" lon="0.08386">
        <ele>293</ele>
        <time>2020-12-13T08:21:21Z</time>
      </trkpt>
      <trkpt lat="43.25545" lon="0.08381">
        <ele>293</ele>
        <time>2020-12-13T08:21:29Z</time>
      </trkpt>
      <trkpt lat="43.25552" lon="0.08381">
        <ele>293</ele>
        <time>2020-12-13T08:21:36Z</time>
      </trkpt>
      <trkpt lat="43.25559" lon="0.08383">
        <ele>293</ele>
        <time>2020-12-13T08:22:06Z</time>
      </trkpt>
      <trkpt lat="43.25565" lon="0.08382">
        <ele>293</ele>
        <time>2020-12-13T08:22:11Z</time>
      </trkpt>
      <trkpt lat="43.25577" lon="0.08384">
        <ele>293</ele>
        <time>2020-12-13T08:22:21Z</time>
      </trkpt>
      <trkpt lat="43.25588" lon="0.08386">
        <ele>293</ele>
        <time>2020-12-13T08:22:28Z</time>
      </trkpt>
      <trkpt lat="43.25595" lon="0.08384">
        <ele>293</ele>
        <time>2020-12-13T08:22:36Z</time>
      </trkpt>
      <trkpt lat="43.25616" lon="0.08387">
        <ele>292</ele>
        <time>2020-12-13T08:22:48Z</time>
      </trkpt>
      <trkpt lat="43.25647" lon="0.08376">
        <ele>291</ele>
        <time>2020-12-13T08:23:15Z</time>
      </trkpt>
      <trkpt lat="43.25665" lon="0.0838">
        <ele>291</ele>
        <time>2020-12-13T08:23:27Z</time>
      </trkpt>
      <trkpt lat="43.25672" lon="0.08377">
        <ele>291</ele>
        <time>2020-12-13T08:23:32Z</time>
      </trkpt>
      <trkpt lat="43.25678" lon="0.08374">
        <ele>291</ele>
        <time>2020-12-13T08:23:37Z</time>
      </trkpt>
      <trkpt lat="43.25694" lon="0.08369">
        <ele>291</ele>
        <time>2020-12-13T08:23:49Z</time>
      </trkpt>
      <trkpt lat="43.25703" lon="0.0837">
        <ele>291</ele>
        <time>2020-12-13T08:23:54Z</time>
      </trkpt>
      <trkpt lat="43.25749" lon="0.08362">
        <ele>292</ele>
        <time>2020-12-13T08:24:25Z</time>
      </trkpt>
      <trkpt lat="43.25755" lon="0.08362">
        <ele>292</ele>
        <time>2020-12-13T08:24:30Z</time>
      </trkpt>
      <trkpt lat="43.25762" lon="0.08363">
        <ele>291</ele>
        <time>2020-12-13T08:24:34Z</time>
      </trkpt>
      <trkpt lat="43.25801" lon="0.0836">
        <ele>291</ele>
        <time>2020-12-13T08:25:06Z</time>
      </trkpt>
      <trkpt lat="43.25831" lon="0.08363">
        <ele>291</ele>
        <time>2020-12-13T08:25:36Z</time>
      </trkpt>
      <trkpt lat="43.25862" lon="0.08362">
        <ele>291</ele>
        <time>2020-12-13T08:26:02Z</time>
      </trkpt>
      <trkpt lat="43.25885" lon="0.08369">
        <ele>291</ele>
        <time>2020-12-13T08:26:17Z</time>
      </trkpt>
      <trkpt lat="43.25892" lon="0.08369">
        <ele>291</ele>
        <time>2020-12-13T08:26:23Z</time>
      </trkpt>
      <trkpt lat="43.25908" lon="0.08364">
        <ele>291</ele>
        <time>2020-12-13T08:26:34Z</time>
      </trkpt>
      <trkpt lat="43.25955" lon="0.08371">
        <ele>291</ele>
        <time>2020-12-13T08:27:04Z</time>
      </trkpt>
      <trkpt lat="43.2597" lon="0.08379">
        <ele>291</ele>
        <time>2020-12-13T08:27:16Z</time>
      </trkpt>
      <trkpt lat="43.25986" lon="0.0838">
        <ele>291</ele>
        <time>2020-12-13T08:27:29Z</time>
      </trkpt>
      <trkpt lat="43.26009" lon="0.08373">
        <ele>291</ele>
        <time>2020-12-13T08:27:49Z</time>
      </trkpt>
      <trkpt lat="43.26018" lon="0.08374">
        <ele>291</ele>
        <time>2020-12-13T08:27:54Z</time>
      </trkpt>
      <trkpt lat="43.26033" lon="0.08371">
        <ele>291</ele>
        <time>2020-12-13T08:28:07Z</time>
      </trkpt>
      <trkpt lat="43.26046" lon="0.08374">
        <ele>291</ele>
        <time>2020-12-13T08:28:21Z</time>
      </trkpt>
      <trkpt lat="43.26063" lon="0.0837">
        <ele>291</ele>
        <time>2020-12-13T08:28:41Z</time>
      </trkpt>
      <trkpt lat="43.2607" lon="0.08377">
        <ele>291</ele>
        <time>2020-12-13T08:28:54Z</time>
      </trkpt>
      <trkpt lat="43.26085" lon="0.08367">
        <ele>290</ele>
        <time>2020-12-13T08:29:09Z</time>
      </trkpt>
      <trkpt lat="43.26118" lon="0.08362">
        <ele>290</ele>
        <time>2020-12-13T08:29:39Z</time>
      </trkpt>
      <trkpt lat="43.26154" lon="0.08359">
        <ele>290</ele>
        <time>2020-12-13T08:30:01Z</time>
      </trkpt>
      <trkpt lat="43.2618" lon="0.08351">
        <ele>290</ele>
        <time>2020-12-13T08:30:24Z</time>
      </trkpt>
      <trkpt lat="43.26191" lon="0.08352">
        <ele>289</ele>
        <time>2020-12-13T08:30:36Z</time>
      </trkpt>
      <trkpt lat="43.26225" lon="0.08347">
        <ele>289</ele>
        <time>2020-12-13T08:31:21Z</time>
      </trkpt>
      <trkpt lat="43.26252" lon="0.08342">
        <ele>288</ele>
        <time>2020-12-13T08:31:50Z</time>
      </trkpt>
      <trkpt lat="43.26272" lon="0.08335">
        <ele>288</ele>
        <time>2020-12-13T08:32:10Z</time>
      </trkpt>
      <trkpt lat="43.2628" lon="0.08335">
        <ele>288</ele>
        <time>2020-12-13T08:32:15Z</time>
      </trkpt>
      <trkpt lat="43.26287" lon="0.08332">
        <ele>288</ele>
        <time>2020-12-13T08:32:22Z</time>
      </trkpt>
      <trkpt lat="43.26305" lon="0.0833">
        <ele>288</ele>
        <time>2020-12-13T08:32:38Z</time>
      </trkpt>
      <trkpt lat="43.26312" lon="0.08328">
        <ele>288</ele>
        <time>2020-12-13T08:32:43Z</time>
      </trkpt>
      <trkpt lat="43.26328" lon="0.08332">
        <ele>288</ele>
        <time>2020-12-13T08:32:54Z</time>
      </trkpt>
      <trkpt lat="43.26382" lon="0.08317">
        <ele>288</ele>
        <time>2020-12-13T08:33:28Z</time>
      </trkpt>
      <trkpt lat="43.26388" lon="0.08313">
        <ele>287</ele>
        <time>2020-12-13T08:33:35Z</time>
      </trkpt>
      <trkpt lat="43.26396" lon="0.08312">
        <ele>287</ele>
        <time>2020-12-13T08:33:43Z</time>
      </trkpt>
      <trkpt lat="43.26403" lon="0.08307">
        <ele>287</ele>
        <time>2020-12-13T08:33:55Z</time>
      </trkpt>
      <trkpt lat="43.26416" lon="0.08304">
        <ele>287</ele>
        <time>2020-12-13T08:34:11Z</time>
      </trkpt>
      <trkpt lat="43.26425" lon="0.08304">
        <ele>287</ele>
        <time>2020-12-13T08:34:17Z</time>
      </trkpt>
      <trkpt lat="43.26433" lon="0.08301">
        <ele>287</ele>
        <time>2020-12-13T08:34:22Z</time>
      </trkpt>
      <trkpt lat="43.26483" lon="0.08347">
        <ele>286</ele>
        <time>2020-12-13T08:34:52Z</time>
      </trkpt>
      <trkpt lat="43.26508" lon="0.08362">
        <ele>286</ele>
        <time>2020-12-13T08:35:13Z</time>
      </trkpt>
      <trkpt lat="43.26535" lon="0.08394">
        <ele>285</ele>
        <time>2020-12-13T08:35:43Z</time>
      </trkpt>
      <trkpt lat="43.26551" lon="0.08406">
        <ele>285</ele>
        <time>2020-12-13T08:35:57Z</time>
      </trkpt>
      <trkpt lat="43.26622" lon="0.08428">
        <ele>285</ele>
        <time>2020-12-13T08:36:41Z</time>
      </trkpt>
      <trkpt lat="43.26653" lon="0.08439">
        <ele>285</ele>
        <time>2020-12-13T08:37:15Z</time>
      </trkpt>
      <trkpt lat="43.26698" lon="0.0845">
        <ele>284</ele>
        <time>2020-12-13T08:37:47Z</time>
      </trkpt>
      <trkpt lat="43.26704" lon="0.08451">
        <ele>284</ele>
        <time>2020-12-13T08:37:53Z</time>
      </trkpt>
      <trkpt lat="43.26711" lon="0.08456">
        <ele>284</ele>
        <time>2020-12-13T08:38:05Z</time>
      </trkpt>
      <trkpt lat="43.26717" lon="0.08452">
        <ele>284</ele>
        <time>2020-12-13T08:38:20Z</time>
      </trkpt>
      <trkpt lat="43.26766" lon="0.0845">
        <ele>283</ele>
        <time>2020-12-13T08:38:50Z</time>
      </trkpt>
      <trkpt lat="43.26773" lon="0.08448">
        <ele>283</ele>
        <time>2020-12-13T08:38:53Z</time>
      </trkpt>
      <trkpt lat="43.26795" lon="0.0843">
        <ele>283</ele>
        <time>2020-12-13T08:39:09Z</time>
      </trkpt>
      <trkpt lat="43.26816" lon="0.08421">
        <ele>283</ele>
        <time>2020-12-13T08:39:30Z</time>
      </trkpt>
      <trkpt lat="43.26829" lon="0.08418">
        <ele>282</ele>
        <time>2020-12-13T08:39:57Z</time>
      </trkpt>
      <trkpt lat="43.26838" lon="0.08407">
        <ele>282</ele>
        <time>2020-12-13T08:40:06Z</time>
      </trkpt>
      <trkpt lat="43.26888" lon="0.08402">
        <ele>281</ele>
        <time>2020-12-13T08:40:41Z</time>
      </trkpt>
      <trkpt lat="43.26947" lon="0.08388">
        <ele>281</ele>
        <time>2020-12-13T08:41:19Z</time>
      </trkpt>
      <trkpt lat="43.26978" lon="0.08387">
        <ele>281</ele>
        <time>2020-12-13T08:41:34Z</time>
      </trkpt>
      <trkpt lat="43.27027" lon="0.08403">
        <ele>282</ele>
        <time>2020-12-13T08:41:58Z</time>
      </trkpt>
      <trkpt lat="43.2704" lon="0.08407">
        <ele>282</ele>
        <time>2020-12-13T08:42:31Z</time>
      </trkpt>
      <trkpt lat="43.27064" lon="0.08391">
        <ele>282</ele>
        <time>2020-12-13T08:43:02Z</time>
      </trkpt>
      <trkpt lat="43.27084" lon="0.08377">
        <ele>282</ele>
        <time>2020-12-13T08:43:21Z</time>
      </trkpt>
      <trkpt lat="43.27128" lon="0.08353">
        <ele>281</ele>
        <time>2020-12-13T08:43:54Z</time>
      </trkpt>
      <trkpt lat="43.27142" lon="0.08354">
        <ele>281</ele>
        <time>2020-12-13T08:44:07Z</time>
      </trkpt>
      <trkpt lat="43.27158" lon="0.08358">
        <ele>281</ele>
        <time>2020-12-13T08:44:19Z</time>
      </trkpt>
      <trkpt lat="43.27165" lon="0.08359">
        <ele>281</ele>
        <time>2020-12-13T08:44:25Z</time>
      </trkpt>
      <trkpt lat="43.27202" lon="0.08372">
        <ele>280</ele>
        <time>2020-12-13T08:44:54Z</time>
      </trkpt>
      <trkpt lat="43.27223" lon="0.0839">
        <ele>280</ele>
        <time>2020-12-13T08:45:10Z</time>
      </trkpt>
      <trkpt lat="43.27231" lon="0.08392">
        <ele>280</ele>
        <time>2020-12-13T08:45:16Z</time>
      </trkpt>
      <trkpt lat="43.27245" lon="0.08401">
        <ele>280</ele>
        <time>2020-12-13T08:45:26Z</time>
      </trkpt>
      <trkpt lat="43.27291" lon="0.08396">
        <ele>280</ele>
        <time>2020-12-13T08:46:02Z</time>
      </trkpt>
      <trkpt lat="43.27299" lon="0.08392">
        <ele>280</ele>
        <time>2020-12-13T08:46:07Z</time>
      </trkpt>
      <trkpt lat="43.27346" lon="0.08389">
        <ele>279</ele>
        <time>2020-12-13T08:46:47Z</time>
      </trkpt>
      <trkpt lat="43.27359" lon="0.08392">
        <ele>279</ele>
        <time>2020-12-13T08:46:57Z</time>
      </trkpt>
      <trkpt lat="43.27391" lon="0.08384">
        <ele>279</ele>
        <time>2020-12-13T08:47:21Z</time>
      </trkpt>
      <trkpt lat="43.27454" lon="0.08385">
        <ele>279</ele>
        <time>2020-12-13T08:47:56Z</time>
      </trkpt>
      <trkpt lat="43.27469" lon="0.08385">
        <ele>279</ele>
        <time>2020-12-13T08:48:04Z</time>
      </trkpt>
      <trkpt lat="43.27528" lon="0.08402">
        <ele>279</ele>
        <time>2020-12-13T08:48:45Z</time>
      </trkpt>
      <trkpt lat="43.27572" lon="0.08406">
        <ele>279</ele>
        <time>2020-12-13T08:49:15Z</time>
      </trkpt>
      <trkpt lat="43.27587" lon="0.0841">
        <ele>279</ele>
        <time>2020-12-13T08:49:29Z</time>
      </trkpt>
      <trkpt lat="43.27611" lon="0.0842">
        <ele>278</ele>
        <time>2020-12-13T08:49:45Z</time>
      </trkpt>
      <trkpt lat="43.27618" lon="0.08423">
        <ele>278</ele>
        <time>2020-12-13T08:49:50Z</time>
      </trkpt>
      <trkpt lat="43.27635" lon="0.08418">
        <ele>278</ele>
        <time>2020-12-13T08:49:59Z</time>
      </trkpt>
      <trkpt lat="43.2764" lon="0.08413">
        <ele>277</ele>
        <time>2020-12-13T08:50:04Z</time>
      </trkpt>
      <trkpt lat="43.2766" lon="0.08409">
        <ele>277</ele>
        <time>2020-12-13T08:50:24Z</time>
      </trkpt>
      <trkpt lat="43.27688" lon="0.08419">
        <ele>275</ele>
        <time>2020-12-13T08:50:45Z</time>
      </trkpt>
      <trkpt lat="43.27693" lon="0.08424">
        <ele>275</ele>
        <time>2020-12-13T08:50:49Z</time>
      </trkpt>
      <trkpt lat="43.27731" lon="0.08436">
        <ele>276</ele>
        <time>2020-12-13T08:51:22Z</time>
      </trkpt>
      <trkpt lat="43.27786" lon="0.08431">
        <ele>275</ele>
        <time>2020-12-13T08:51:55Z</time>
      </trkpt>
      <trkpt lat="43.2781" lon="0.08436">
        <ele>276</ele>
        <time>2020-12-13T08:52:14Z</time>
      </trkpt>
      <trkpt lat="43.27826" lon="0.08434">
        <ele>277</ele>
        <time>2020-12-13T08:52:26Z</time>
      </trkpt>
      <trkpt lat="43.27835" lon="0.08436">
        <ele>277</ele>
        <time>2020-12-13T08:52:32Z</time>
      </trkpt>
      <trkpt lat="43.27842" lon="0.08435">
        <ele>278</ele>
        <time>2020-12-13T08:52:39Z</time>
      </trkpt>
      <trkpt lat="43.27848" lon="0.08441">
        <ele>278</ele>
        <time>2020-12-13T08:52:46Z</time>
      </trkpt>
      <trkpt lat="43.27852" lon="0.08446">
        <ele>278</ele>
        <time>2020-12-13T08:53:16Z</time>
      </trkpt>
      <trkpt lat="43.2786" lon="0.08448">
        <ele>277</ele>
        <time>2020-12-13T08:53:31Z</time>
      </trkpt>
      <trkpt lat="43.27868" lon="0.08449">
        <ele>277</ele>
        <time>2020-12-13T08:53:39Z</time>
      </trkpt>
      <trkpt lat="43.27885" lon="0.08448">
        <ele>277</ele>
        <time>2020-12-13T08:53:59Z</time>
      </trkpt>
      <trkpt lat="43.27908" lon="0.08449">
        <ele>277</ele>
        <time>2020-12-13T08:54:15Z</time>
      </trkpt>
      <trkpt lat="43.27931" lon="0.08458">
        <ele>276</ele>
        <time>2020-12-13T08:54:31Z</time>
      </trkpt>
      <trkpt lat="43.27939" lon="0.08456">
        <ele>276</ele>
        <time>2020-12-13T08:54:36Z</time>
      </trkpt>
      <trkpt lat="43.27947" lon="0.0846">
        <ele>276</ele>
        <time>2020-12-13T08:54:40Z</time>
      </trkpt>
      <trkpt lat="43.27956" lon="0.08469">
        <ele>276</ele>
        <time>2020-12-13T08:54:48Z</time>
      </trkpt>
      <trkpt lat="43.27967" lon="0.08474">
        <ele>275</ele>
        <time>2020-12-13T08:54:58Z</time>
      </trkpt>
      <trkpt lat="43.28002" lon="0.08501">
        <ele>274</ele>
        <time>2020-12-13T08:55:34Z</time>
      </trkpt>
      <trkpt lat="43.28033" lon="0.08513">
        <ele>275</ele>
        <time>2020-12-13T08:55:58Z</time>
      </trkpt>
      <trkpt lat="43.28044" lon="0.08514">
        <ele>276</ele>
        <time>2020-12-13T08:56:08Z</time>
      </trkpt>
      <trkpt lat="43.2805" lon="0.08511">
        <ele>276</ele>
        <time>2020-12-13T08:56:12Z</time>
      </trkpt>
      <trkpt lat="43.28062" lon="0.08514">
        <ele>276</ele>
        <time>2020-12-13T08:56:20Z</time>
      </trkpt>
      <trkpt lat="43.28068" lon="0.08513">
        <ele>276</ele>
        <time>2020-12-13T08:56:25Z</time>
      </trkpt>
      <trkpt lat="43.281" lon="0.08528">
        <ele>276</ele>
        <time>2020-12-13T08:56:58Z</time>
      </trkpt>
      <trkpt lat="43.2814" lon="0.08539">
        <ele>275</ele>
        <time>2020-12-13T08:57:30Z</time>
      </trkpt>
      <trkpt lat="43.28162" lon="0.08542">
        <ele>275</ele>
        <time>2020-12-13T08:57:49Z</time>
      </trkpt>
      <trkpt lat="43.28177" lon="0.08539">
        <ele>274</ele>
        <time>2020-12-13T08:58:01Z</time>
      </trkpt>
      <trkpt lat="43.28197" lon="0.0854">
        <ele>274</ele>
        <time>2020-12-13T08:58:22Z</time>
      </trkpt>
      <trkpt lat="43.28204" lon="0.08538">
        <ele>274</ele>
        <time>2020-12-13T08:58:29Z</time>
      </trkpt>
      <trkpt lat="43.28212" lon="0.08538">
        <ele>274</ele>
        <time>2020-12-13T08:58:33Z</time>
      </trkpt>
      <trkpt lat="43.28237" lon="0.08544">
        <ele>274</ele>
        <time>2020-12-13T08:58:47Z</time>
      </trkpt>
      <trkpt lat="43.28269" lon="0.08545">
        <ele>274</ele>
        <time>2020-12-13T08:59:04Z</time>
      </trkpt>
      <trkpt lat="43.28276" lon="0.08549">
        <ele>273</ele>
        <time>2020-12-13T08:59:08Z</time>
      </trkpt>
      <trkpt lat="43.28282" lon="0.08556">
        <ele>273</ele>
        <time>2020-12-13T08:59:13Z</time>
      </trkpt>
      <trkpt lat="43.28289" lon="0.0857">
        <ele>273</ele>
        <time>2020-12-13T08:59:20Z</time>
      </trkpt>
      <trkpt lat="43.28291" lon="0.08579">
        <ele>273</ele>
        <time>2020-12-13T08:59:24Z</time>
      </trkpt>
      <trkpt lat="43.28319" lon="0.08625">
        <ele>273</ele>
        <time>2020-12-13T08:59:56Z</time>
      </trkpt>
      <trkpt lat="43.28338" lon="0.08654">
        <ele>273</ele>
        <time>2020-12-13T09:00:20Z</time>
      </trkpt>
      <trkpt lat="43.28352" lon="0.08665">
        <ele>273</ele>
        <time>2020-12-13T09:00:33Z</time>
      </trkpt>
      <trkpt lat="43.28357" lon="0.08673">
        <ele>273</ele>
        <time>2020-12-13T09:00:39Z</time>
      </trkpt>
      <trkpt lat="43.28366" lon="0.08678">
        <ele>273</ele>
        <time>2020-12-13T09:00:45Z</time>
      </trkpt>
      <trkpt lat="43.28381" lon="0.08686">
        <ele>272</ele>
        <time>2020-12-13T09:00:58Z</time>
      </trkpt>
      <trkpt lat="43.28387" lon="0.08693">
        <ele>272</ele>
        <time>2020-12-13T09:01:04Z</time>
      </trkpt>
      <trkpt lat="43.28402" lon="0.08703">
        <ele>272</ele>
        <time>2020-12-13T09:01:14Z</time>
      </trkpt>
      <trkpt lat="43.2841" lon="0.08705">
        <ele>272</ele>
        <time>2020-12-13T09:01:20Z</time>
      </trkpt>
      <trkpt lat="43.28417" lon="0.08708">
        <ele>272</ele>
        <time>2020-12-13T09:01:26Z</time>
      </trkpt>
      <trkpt lat="43.28429" lon="0.08705">
        <ele>272</ele>
        <time>2020-12-13T09:01:38Z</time>
      </trkpt>
      <trkpt lat="43.28437" lon="0.08706">
        <ele>271</ele>
        <time>2020-12-13T09:01:43Z</time>
      </trkpt>
      <trkpt lat="43.28477" lon="0.08711">
        <ele>271</ele>
        <time>2020-12-13T09:02:13Z</time>
      </trkpt>
      <trkpt lat="43.28484" lon="0.08712">
        <ele>271</ele>
        <time>2020-12-13T09:02:18Z</time>
      </trkpt>
      <trkpt lat="43.2849" lon="0.08717">
        <ele>271</ele>
        <time>2020-12-13T09:02:25Z</time>
      </trkpt>
      <trkpt lat="43.28506" lon="0.08722">
        <ele>271</ele>
        <time>2020-12-13T09:02:38Z</time>
      </trkpt>
      <trkpt lat="43.28547" lon="0.08723">
        <ele>270</ele>
        <time>2020-12-13T09:03:13Z</time>
      </trkpt>
      <trkpt lat="43.28555" lon="0.08723">
        <ele>271</ele>
        <time>2020-12-13T09:03:19Z</time>
      </trkpt>
      <trkpt lat="43.28563" lon="0.08724">
        <ele>271</ele>
        <time>2020-12-13T09:03:26Z</time>
      </trkpt>
      <trkpt lat="43.28603" lon="0.08721">
        <ele>271</ele>
        <time>2020-12-13T09:03:52Z</time>
      </trkpt>
      <trkpt lat="43.28625" lon="0.08709">
        <ele>272</ele>
        <time>2020-12-13T09:04:11Z</time>
      </trkpt>
      <trkpt lat="43.28632" lon="0.08704">
        <ele>272</ele>
        <time>2020-12-13T09:04:16Z</time>
      </trkpt>
      <trkpt lat="43.2864" lon="0.08704">
        <ele>272</ele>
        <time>2020-12-13T09:04:22Z</time>
      </trkpt>
      <trkpt lat="43.28645" lon="0.08698">
        <ele>272</ele>
        <time>2020-12-13T09:04:43Z</time>
      </trkpt>
      <trkpt lat="43.28656" lon="0.08698">
        <ele>272</ele>
        <time>2020-12-13T09:05:06Z</time>
      </trkpt>
      <trkpt lat="43.28669" lon="0.0869">
        <ele>271</ele>
        <time>2020-12-13T09:05:17Z</time>
      </trkpt>
      <trkpt lat="43.28708" lon="0.08673">
        <ele>271</ele>
        <time>2020-12-13T09:05:53Z</time>
      </trkpt>
      <trkpt lat="43.2875" lon="0.08643">
        <ele>271</ele>
        <time>2020-12-13T09:06:25Z</time>
      </trkpt>
      <trkpt lat="43.28758" lon="0.08626">
        <ele>271</ele>
        <time>2020-12-13T09:06:33Z</time>
      </trkpt>
      <trkpt lat="43.28764" lon="0.08618">
        <ele>271</ele>
        <time>2020-12-13T09:06:38Z</time>
      </trkpt>
      <trkpt lat="43.28777" lon="0.08605">
        <ele>271</ele>
        <time>2020-12-13T09:06:50Z</time>
      </trkpt>
      <trkpt lat="43.28786" lon="0.08588">
        <ele>271</ele>
        <time>2020-12-13T09:07:03Z</time>
      </trkpt>
      <trkpt lat="43.28788" lon="0.08579">
        <ele>270</ele>
        <time>2020-12-13T09:07:11Z</time>
      </trkpt>
      <trkpt lat="43.28791" lon="0.08568">
        <ele>270</ele>
        <time>2020-12-13T09:07:23Z</time>
      </trkpt>
      <trkpt lat="43.28799" lon="0.08549">
        <ele>270</ele>
        <time>2020-12-13T09:07:36Z</time>
      </trkpt>
      <trkpt lat="43.28802" lon="0.08536">
        <ele>269</ele>
        <time>2020-12-13T09:07:45Z</time>
      </trkpt>
      <trkpt lat="43.28814" lon="0.08503">
        <ele>269</ele>
        <time>2020-12-13T09:08:09Z</time>
      </trkpt>
      <trkpt lat="43.28819" lon="0.08481">
        <ele>269</ele>
        <time>2020-12-13T09:08:34Z</time>
      </trkpt>
      <trkpt lat="43.2882" lon="0.08449">
        <ele>269</ele>
        <time>2020-12-13T09:08:49Z</time>
      </trkpt>
      <trkpt lat="43.28822" lon="0.08439">
        <ele>269</ele>
        <time>2020-12-13T09:08:54Z</time>
      </trkpt>
      <trkpt lat="43.28822" lon="0.08417">
        <ele>269</ele>
        <time>2020-12-13T09:09:05Z</time>
      </trkpt>
      <trkpt lat="43.28829" lon="0.08399">
        <ele>269</ele>
        <time>2020-12-13T09:09:13Z</time>
      </trkpt>
      <trkpt lat="43.28833" lon="0.08385">
        <ele>269</ele>
        <time>2020-12-13T09:09:30Z</time>
      </trkpt>
    </trkseg>
  </trk>
</gpx>